createdAt,value
2018-11-26T00:00:36.165Z,49.47
2018-11-26T00:03:04.538Z,35.83
2018-11-26T00:05:33.826Z,26.27
2018-11-26T00:08:01.924Z,43.22
2018-11-26T00:10:47.884Z,38.42
2018-11-26T00:13:17.182Z,39.08
2018-11-26T00:15:44.957Z,37.58
2018-11-26T00:18:13.487Z,44.03
2018-11-26T00:20:42.749Z,43.20
2018-11-26T00:23:10.566Z,31.90
2018-11-26T00:25:38.641Z,40.05
2018-11-26T00:28:07.069Z,38.97
2018-11-26T00:30:36.685Z,45.55
2018-11-26T00:33:06.170Z,42.33
2018-11-26T00:35:34.138Z,48.35
2018-11-26T00:38:02.225Z,39.17
2018-11-26T00:40:31.706Z,26.58
2018-11-26T00:43:01.151Z,37.83
2018-11-26T00:45:28.684Z,29.85
2018-11-26T00:47:58.187Z,46.95
2018-11-26T00:50:26.354Z,43.40
2018-11-26T00:52:54.969Z,39.85
2018-11-26T00:55:23.209Z,45.63
2018-11-26T00:57:57.116Z,43.40
2018-11-26T01:00:26.609Z,39.05
2018-11-26T01:02:55.905Z,42.08
2018-11-26T01:05:30.179Z,45.72
2018-11-26T01:07:59.847Z,44.35
2018-11-26T01:10:29.382Z,40.60
2018-11-26T01:12:59.182Z,41.22
2018-11-26T01:15:27.597Z,44.25
2018-11-26T01:17:57.026Z,39.83
2018-11-26T01:20:25.112Z,31.95
2018-11-26T01:22:54.462Z,46.72
2018-11-26T01:25:23.823Z,44.35
2018-11-26T01:27:51.918Z,39.40
2018-11-26T01:30:21.511Z,39.72
2018-11-26T01:32:51.308Z,41.80
2018-11-26T01:35:19.210Z,43.60
2018-11-26T01:37:49.068Z,45.03
2018-11-26T01:40:42.128Z,35.03
2018-11-26T01:43:10.783Z,43.53
2018-11-26T01:45:40.565Z,37.10
2018-11-26T01:48:08.351Z,44.50
2018-11-26T01:50:37.795Z,38.28
2018-11-26T01:53:06.266Z,42.80
2018-11-26T01:55:34.139Z,45.45
2018-11-26T01:58:02.526Z,36.60
2018-11-26T02:00:31.047Z,38.50
2018-11-26T02:02:59.010Z,34.75
2018-11-26T02:05:27.085Z,46.47
2018-11-26T02:07:56.379Z,42.60
2018-11-26T02:10:24.440Z,43.55
2018-11-26T02:12:54.026Z,45.17
2018-11-26T02:15:39.109Z,46.45
2018-11-26T02:18:07.483Z,49.33
2018-11-26T02:20:35.602Z,45.53
2018-11-26T02:23:03.577Z,43.15
2018-11-26T02:25:31.417Z,48.35
2018-11-26T02:28:00.865Z,46.70
2018-11-26T02:30:28.685Z,48.50
2018-11-26T02:32:58.098Z,42.88
2018-11-26T02:35:27.789Z,41.75
2018-11-26T02:37:57.692Z,51.20
2018-11-26T02:40:29.550Z,48.55
2018-11-26T02:42:57.638Z,41.35
2018-11-26T02:45:25.621Z,41.40
2018-11-26T02:47:54.331Z,46.42
2018-11-26T02:50:21.887Z,47.65
2018-11-26T02:52:50.486Z,40.25
2018-11-26T02:55:18.404Z,46.53
2018-11-26T02:57:46.249Z,41.85
2018-11-26T03:00:15.139Z,50.30
2018-11-26T03:02:43.489Z,47.13
2018-11-26T03:05:12.695Z,42.95
2018-11-26T03:07:41.285Z,44.13
2018-11-26T03:10:12.339Z,51.42
2018-11-26T03:12:40.035Z,41.00
2018-11-26T03:15:09.056Z,39.00
2018-11-26T03:17:38.627Z,41.67
2018-11-26T03:20:07.234Z,45.65
2018-11-26T03:22:35.368Z,45.75
2018-11-26T03:25:03.221Z,44.47
2018-11-26T03:27:31.835Z,57.50
2018-11-26T03:30:01.421Z,46.13
2018-11-26T03:32:29.608Z,53.28
2018-11-26T03:34:57.623Z,49.80
2018-11-26T03:37:27.231Z,41.53
2018-11-26T03:39:55.248Z,51.92
2018-11-26T03:42:24.635Z,56.60
2018-11-26T03:44:52.511Z,43.72
2018-11-26T03:47:20.644Z,52.40
2018-11-26T03:49:50.320Z,44.58
2018-11-26T03:52:20.400Z,54.88
2018-11-26T03:54:48.324Z,50.05
2018-11-26T03:57:16.729Z,52.13
2018-11-26T03:59:45.884Z,50.22
2018-11-26T04:02:14.034Z,42.08
2018-11-26T04:04:42.109Z,47.62
2018-11-26T04:07:11.517Z,49.97
2018-11-26T04:09:39.530Z,47.70
2018-11-26T04:12:08.325Z,39.88
2018-11-26T04:14:36.116Z,44.33
2018-11-26T04:17:08.678Z,51.78
2018-11-26T04:19:36.791Z,41.22
2018-11-26T04:22:04.817Z,47.60
2018-11-26T04:24:34.051Z,40.80
2018-11-26T04:27:02.135Z,45.47
2018-11-26T04:29:31.730Z,39.15
2018-11-26T04:32:00.195Z,47.97
2018-11-26T04:34:28.257Z,52.17
2018-11-26T04:36:55.837Z,42.13
2018-11-26T04:39:24.946Z,45.00
2018-11-26T04:41:54.443Z,47.67
2018-11-26T04:44:23.732Z,41.42
2018-11-26T04:46:55.488Z,46.40
2018-11-26T04:49:25.143Z,42.72
2018-11-26T04:51:53.088Z,34.10
2018-11-26T04:54:21.612Z,47.40
2018-11-26T04:56:50.299Z,33.95
2018-11-26T04:59:18.931Z,45.17
2018-11-26T05:01:46.973Z,41.47
2018-11-26T05:04:14.503Z,38.13
2018-11-26T05:06:43.429Z,36.45
2018-11-26T05:09:14.247Z,49.92
2018-11-26T05:11:45.582Z,41.83
2018-11-26T05:14:15.011Z,46.55
2018-11-26T05:16:44.435Z,42.62
2018-11-26T05:19:14.038Z,52.17
2018-11-26T05:21:43.370Z,55.58
2018-11-26T05:24:12.956Z,49.38
2018-11-26T05:26:42.509Z,50.08
2018-11-26T05:29:12.160Z,40.42
2018-11-26T05:31:40.103Z,44.72
2018-11-26T05:34:07.695Z,40.20
2018-11-26T05:36:35.777Z,43.13
2018-11-26T05:39:03.947Z,45.15
2018-11-26T05:41:33.617Z,46.65
2018-11-26T05:44:01.614Z,36.22
2018-11-26T05:46:31.039Z,42.15
2018-11-26T05:48:58.927Z,37.38
2018-11-26T05:51:27.377Z,38.53
2018-11-26T05:53:56.797Z,44.92
2018-11-26T05:56:25.873Z,40.95
2018-11-26T05:58:54.444Z,39.05
2018-11-26T06:01:23.823Z,46.17
2018-11-26T06:03:53.061Z,41.30
2018-11-26T06:06:21.131Z,42.17
2018-11-26T06:08:50.531Z,35.70
2018-11-26T06:11:18.531Z,37.80
2018-11-26T06:13:47.946Z,38.05
2018-11-26T06:16:16.156Z,39.47
2018-11-26T06:18:45.738Z,39.00
2018-11-26T06:21:15.155Z,38.67
2018-11-26T06:23:43.349Z,37.63
2018-11-26T06:26:12.895Z,38.40
2018-11-26T06:28:40.860Z,37.95
2018-11-26T06:31:08.845Z,35.08
2018-11-26T06:33:38.477Z,38.42
2018-11-26T06:36:08.047Z,45.20
2018-11-26T06:38:36.473Z,32.97
2018-11-26T06:41:04.339Z,36.30
2018-11-26T06:43:32.672Z,36.15
2018-11-26T06:46:02.094Z,38.67
2018-11-26T06:48:31.760Z,33.38
2018-11-26T06:50:59.732Z,38.42
2018-11-26T06:53:29.406Z,31.33
2018-11-26T06:55:57.388Z,39.28
2018-11-26T06:58:27.140Z,37.97
2018-11-26T07:00:56.610Z,34.00
2018-11-26T07:03:26.003Z,33.92
2018-11-26T07:05:55.830Z,34.42
2018-11-26T07:08:25.982Z,31.20
2018-11-26T07:10:55.600Z,32.00
2018-11-26T07:13:23.547Z,33.60
2018-11-26T07:15:51.396Z,33.42
2018-11-26T07:18:19.388Z,38.17
2018-11-26T07:20:49.013Z,41.05
2018-11-26T07:23:18.435Z,34.05
2018-11-26T07:25:47.768Z,36.65
2018-11-26T07:28:17.345Z,24.00
2018-11-26T07:30:46.844Z,32.67
2018-11-26T07:33:16.428Z,32.35
2018-11-26T07:35:45.906Z,34.83
2018-11-26T07:38:15.709Z,33.95
2018-11-26T07:40:43.735Z,34.42
2018-11-26T07:43:12.473Z,35.00
2018-11-26T07:45:40.756Z,31.85
2018-11-26T07:48:09.082Z,35.42
2018-11-26T07:50:38.227Z,35.15
2018-11-26T07:53:08.728Z,34.67
2018-11-26T07:55:36.927Z,31.50
2018-11-26T07:58:06.289Z,26.80
2018-11-26T08:00:34.256Z,30.37
2018-11-26T08:03:02.403Z,30.67
2018-11-26T08:05:31.458Z,31.62
2018-11-26T08:08:00.947Z,33.38
2018-11-26T08:10:28.488Z,31.55
2018-11-26T08:12:57.879Z,32.97
2018-11-26T08:15:28.415Z,36.42
2018-11-26T08:17:57.015Z,24.83
2018-11-26T08:20:24.846Z,34.00
2018-11-26T08:22:52.678Z,35.97
2018-11-26T08:25:23.149Z,37.20
2018-11-26T08:27:52.981Z,34.40
2018-11-26T08:30:29.286Z,33.30
2018-11-26T08:32:59.312Z,30.55
2018-11-26T08:35:27.502Z,31.12
2018-11-26T08:38:09.534Z,32.95
2018-11-26T08:40:43.115Z,39.10
2018-11-26T08:43:20.512Z,39.60
2018-11-26T08:46:10.007Z,27.05
2018-11-26T08:48:56.008Z,22.80
2018-11-26T08:51:24.553Z,32.53
2018-11-26T08:53:52.635Z,36.92
2018-11-26T08:56:21.090Z,37.10
2018-11-26T08:58:50.574Z,32.33
2018-11-26T09:01:35.814Z,37.72
2018-11-26T09:04:21.719Z,33.97
2018-11-26T09:06:51.129Z,39.90
2018-11-26T09:09:20.694Z,32.15
2018-11-26T09:11:50.335Z,35.85
2018-11-26T09:14:20.247Z,33.38
2018-11-26T09:16:48.438Z,33.45
2018-11-26T09:19:17.809Z,31.73
2018-11-26T09:21:45.808Z,30.02
2018-11-26T09:24:14.504Z,36.60
2018-11-26T09:26:42.025Z,27.58
2018-11-26T09:29:10.021Z,34.70
2018-11-26T09:31:37.844Z,32.70
2018-11-26T09:34:07.831Z,37.15
2018-11-26T09:36:37.211Z,29.83
2018-11-26T09:39:08.189Z,31.55
2018-11-26T09:41:35.746Z,32.17
2018-11-26T09:44:05.121Z,40.15
2018-11-26T09:46:33.124Z,36.10
2018-11-26T09:49:02.486Z,33.08
2018-11-26T09:51:30.769Z,35.90
2018-11-26T09:54:00.433Z,36.15
2018-11-26T09:56:28.524Z,21.87
2018-11-26T09:58:56.383Z,35.70
2018-11-26T10:01:24.279Z,32.90
2018-11-26T10:03:53.460Z,39.08
2018-11-26T10:06:22.854Z,31.65
2018-11-26T10:08:50.846Z,30.73
2018-11-26T10:11:18.878Z,34.95
2018-11-26T10:13:46.898Z,38.95
2018-11-26T10:16:16.474Z,41.45
2018-11-26T10:18:46.133Z,33.88
2018-11-26T10:21:14.293Z,39.17
2018-11-26T10:23:42.281Z,26.00
2018-11-26T10:26:10.135Z,36.33
2018-11-26T10:28:38.139Z,30.70
2018-11-26T10:31:05.980Z,28.27
2018-11-26T10:33:33.831Z,33.50
2018-11-26T10:36:03.416Z,24.75
2018-11-26T10:38:31.250Z,37.50
2018-11-26T10:40:59.283Z,34.15
2018-11-26T10:43:26.833Z,39.38
2018-11-26T10:45:55.902Z,32.95
2018-11-26T10:48:23.950Z,33.95
2018-11-26T10:50:53.081Z,32.30
2018-11-26T10:53:21.077Z,29.67
2018-11-26T10:55:48.887Z,20.52
2018-11-26T10:58:17.104Z,28.05
2018-11-26T11:01:03.843Z,33.92
2018-11-26T11:03:33.180Z,33.60
2018-11-26T11:06:01.019Z,33.83
2018-11-26T11:08:30.533Z,35.30
2018-11-26T11:10:58.456Z,31.35
2018-11-26T11:13:27.570Z,36.60
2018-11-26T11:15:55.363Z,35.50
2018-11-26T11:18:23.423Z,31.87
2018-11-26T11:20:50.958Z,31.80
2018-11-26T11:23:22.015Z,31.33
2018-11-26T11:25:51.548Z,37.55
2018-11-26T11:28:19.300Z,32.95
2018-11-26T11:30:47.360Z,26.80
2018-11-26T11:35:43.823Z,30.42
2018-11-26T11:38:11.850Z,33.05
2018-11-26T11:40:39.630Z,31.30
2018-11-26T11:43:07.604Z,30.52
2018-11-26T11:45:37.247Z,33.33
2018-11-26T11:48:06.881Z,28.80
2018-11-26T11:50:34.629Z,35.50
2018-11-26T11:53:02.607Z,36.00
2018-11-26T11:55:32.133Z,35.97
2018-11-26T11:58:01.689Z,33.17
2018-11-26T12:00:41.014Z,32.45
2018-11-26T12:03:17.520Z,36.78
2018-11-26T12:05:46.044Z,38.45
2018-11-26T12:08:15.731Z,39.25
2018-11-26T12:10:43.728Z,35.92
2018-11-26T12:13:13.972Z,31.00
2018-11-26T12:15:51.438Z,39.25
2018-11-26T12:18:20.980Z,47.62
2018-11-26T12:20:49.617Z,41.88
2018-11-26T12:23:19.728Z,39.97
2018-11-26T12:25:47.770Z,42.25
2018-11-26T12:28:16.391Z,43.10
2018-11-26T12:30:45.632Z,41.58
2018-11-26T12:33:13.755Z,42.28
2018-11-26T12:35:41.770Z,34.25
2018-11-26T12:38:09.844Z,37.90
2018-11-26T12:40:37.870Z,41.25
2018-11-26T12:43:06.206Z,39.45
2018-11-26T12:45:36.523Z,38.60
2018-11-26T12:48:05.174Z,44.35
2018-11-26T12:50:34.908Z,40.25
2018-11-26T12:53:04.445Z,31.45
2018-11-26T12:55:32.465Z,40.58
2018-11-26T12:58:01.569Z,41.20
2018-11-26T13:00:31.145Z,36.15
2018-11-26T13:03:03.481Z,42.25
2018-11-26T13:05:33.190Z,39.83
2018-11-26T13:08:01.825Z,40.47
2018-11-26T13:10:31.558Z,38.33
2018-11-26T13:13:01.777Z,40.75
2018-11-26T13:15:30.281Z,42.08
2018-11-26T13:17:59.583Z,39.30
2018-11-26T13:20:28.355Z,38.60
2018-11-26T13:22:57.061Z,34.55
2018-11-26T13:25:25.748Z,36.88
2018-11-26T13:27:54.865Z,32.53
2018-11-26T13:30:27.954Z,46.95
2018-11-26T13:32:56.660Z,43.08
2018-11-26T13:35:25.181Z,44.90
2018-11-26T13:37:53.247Z,41.80
2018-11-26T13:40:23.894Z,45.28
2018-11-26T13:42:54.213Z,42.75
2018-11-26T13:45:29.834Z,44.65
2018-11-26T13:47:57.813Z,49.83
2018-11-26T13:50:31.226Z,42.05
2018-11-26T13:53:00.955Z,50.05
2018-11-26T13:55:30.232Z,44.55
2018-11-26T13:57:58.820Z,44.33
2018-11-26T14:00:25.995Z,55.60
2018-11-26T14:02:55.693Z,42.47
2018-11-26T14:05:23.868Z,49.05
2018-11-26T14:07:53.812Z,49.88
2018-11-26T14:10:22.947Z,59.47
2018-11-26T14:13:01.942Z,51.70
2018-11-26T14:15:29.974Z,47.28
2018-11-26T14:17:57.939Z,48.08
2018-11-26T14:20:26.271Z,44.17
2018-11-26T14:22:54.309Z,52.17
2018-11-26T14:25:23.604Z,47.00
2018-11-26T14:27:51.968Z,44.85
2018-11-26T14:30:20.729Z,47.70
2018-11-26T14:32:48.807Z,41.45
2018-11-26T14:35:18.457Z,48.03
2018-11-26T14:37:59.180Z,49.35
2018-11-26T14:40:49.367Z,44.72
2018-11-26T14:43:17.958Z,45.83
2018-11-26T14:46:11.371Z,41.75
2018-11-26T14:48:39.663Z,42.22
2018-11-26T14:51:07.701Z,44.17
2018-11-26T14:53:38.052Z,45.92
2018-11-26T14:56:07.640Z,43.20
2018-11-26T14:58:37.328Z,37.67
2018-11-26T15:01:06.879Z,40.88
2018-11-26T15:03:35.178Z,51.47
2018-11-26T15:06:03.149Z,45.75
2018-11-26T15:08:32.947Z,43.10
2018-11-26T15:11:00.967Z,36.15
2018-11-26T15:13:30.467Z,41.53
2018-11-26T15:15:59.840Z,40.58
2018-11-26T15:18:29.484Z,48.83
2018-11-26T15:20:59.668Z,41.60
2018-11-26T15:23:27.439Z,36.08
2018-11-26T15:25:55.528Z,39.78
2018-11-26T15:28:24.143Z,42.70
2018-11-26T15:30:53.770Z,38.47
2018-11-26T15:33:21.505Z,39.20
2018-11-26T15:35:50.139Z,41.13
2018-11-26T15:38:17.892Z,40.67
2018-11-26T15:40:47.671Z,33.17
2018-11-26T15:43:15.691Z,32.47
2018-11-26T15:45:45.343Z,39.72
2018-11-26T15:48:16.157Z,37.13
2018-11-26T15:50:44.192Z,36.70
2018-11-26T15:53:14.258Z,34.05
2018-11-26T15:55:42.378Z,38.85
2018-11-26T15:58:10.625Z,39.92
2018-11-26T16:00:38.128Z,38.63
2018-11-26T16:03:08.305Z,38.40
2018-11-26T16:05:36.457Z,35.97
2018-11-26T16:08:12.532Z,32.15
2018-11-26T16:10:42.092Z,32.28
2018-11-26T16:13:10.920Z,35.67
2018-11-26T16:15:42.707Z,32.05
2018-11-26T16:18:20.491Z,32.92
2018-11-26T16:20:48.923Z,28.23
2018-11-26T16:23:16.660Z,31.58
2018-11-26T16:25:45.367Z,29.05
2018-11-26T16:28:14.437Z,31.25
2018-11-26T16:30:42.522Z,32.40
2018-11-26T16:33:12.393Z,29.63
2018-11-26T16:35:42.124Z,28.00
2018-11-26T16:38:09.832Z,32.78
2018-11-26T16:40:39.393Z,30.02
2018-11-26T16:43:09.032Z,25.67
2018-11-26T16:45:38.675Z,30.17
2018-11-26T16:48:07.972Z,25.42
2018-11-26T16:50:36.664Z,30.60
2018-11-26T16:53:06.272Z,27.42
2018-11-26T16:55:34.247Z,32.30
2018-11-26T16:58:07.836Z,30.27
2018-11-26T17:00:36.178Z,30.77
2018-11-26T17:03:03.902Z,29.80
2018-11-26T17:05:32.691Z,31.00
2018-11-26T17:08:02.398Z,31.10
2018-11-26T17:10:30.472Z,27.80
2018-11-26T17:13:00.239Z,30.55
2018-11-26T17:15:28.309Z,27.97
2018-11-26T17:17:57.822Z,28.80
2018-11-26T17:20:28.025Z,30.00
2018-11-26T17:22:56.006Z,23.92
2018-11-26T17:25:25.541Z,28.95
2018-11-26T17:27:53.622Z,27.95
2018-11-26T17:30:27.565Z,31.08
2018-11-26T17:32:57.389Z,31.00
2018-11-26T17:35:26.919Z,31.87
2018-11-26T17:37:56.543Z,33.28
2018-11-26T17:40:26.210Z,29.50
2018-11-26T17:42:55.602Z,27.33
2018-11-26T17:45:24.408Z,30.00
2018-11-26T17:47:53.139Z,28.87
2018-11-26T17:50:31.048Z,27.58
2018-11-26T17:52:59.639Z,31.43
2018-11-26T17:55:29.221Z,33.63
2018-11-26T17:57:58.922Z,31.30
2018-11-26T18:00:27.955Z,30.92
2018-11-26T18:02:55.953Z,31.90
2018-11-26T18:05:29.173Z,31.08
2018-11-26T18:08:03.243Z,24.48
2018-11-26T18:10:31.268Z,30.88
2018-11-26T18:13:01.468Z,29.45
2018-11-26T18:15:30.194Z,32.63
2018-11-26T18:17:59.888Z,28.80
2018-11-26T18:20:28.042Z,28.35
2018-11-26T18:22:56.069Z,23.53
2018-11-26T18:25:24.503Z,25.55
2018-11-26T18:28:12.301Z,27.13
2018-11-26T18:30:44.102Z,30.75
2018-11-26T18:33:12.650Z,32.55
2018-11-26T18:35:42.665Z,29.55
2018-11-26T18:38:10.691Z,31.43
2018-11-26T18:40:40.442Z,31.87
2018-11-26T18:43:08.882Z,32.67
2018-11-26T18:45:37.096Z,30.70
2018-11-26T18:48:06.986Z,31.58
2018-11-26T18:50:35.103Z,35.37
2018-11-26T18:53:03.115Z,35.55
2018-11-26T18:55:31.745Z,34.35
2018-11-26T18:58:01.308Z,32.63
2018-11-26T19:00:31.681Z,37.13
2018-11-26T19:03:01.470Z,26.95
2018-11-26T19:05:31.020Z,30.40
2018-11-26T19:08:01.239Z,35.40
2018-11-26T19:10:30.059Z,30.75
2018-11-26T19:13:00.351Z,30.10
2018-11-26T19:15:29.589Z,33.47
2018-11-26T19:18:00.476Z,31.83
2018-11-26T19:20:30.175Z,34.05
2018-11-26T19:22:58.248Z,27.77
2018-11-26T19:25:26.254Z,29.37
2018-11-26T19:27:54.264Z,32.17
2018-11-26T19:30:23.268Z,30.95
2018-11-26T19:32:50.068Z,33.40
2018-11-26T19:35:19.349Z,31.40
2018-11-26T19:37:47.325Z,31.45
2018-11-26T19:40:17.526Z,34.05
2018-11-26T19:42:48.184Z,32.03
2018-11-26T19:45:21.816Z,31.03
2018-11-26T19:47:49.826Z,30.27
2018-11-26T19:50:18.401Z,26.90
2018-11-26T19:52:48.457Z,31.33
2018-11-26T19:55:25.705Z,33.30
2018-11-26T19:57:55.724Z,32.40
2018-11-26T20:00:24.489Z,36.15
2018-11-26T20:02:53.188Z,33.13
2018-11-26T20:05:40.319Z,32.85
2018-11-26T20:08:09.851Z,32.10
2018-11-26T20:10:37.847Z,30.58
2018-11-26T20:13:07.532Z,33.25
2018-11-26T20:15:37.128Z,33.67
2018-11-26T20:18:05.095Z,36.40
2018-11-26T20:20:32.802Z,32.97
2018-11-26T20:23:02.589Z,32.53
2018-11-26T20:25:30.585Z,27.80
2018-11-26T20:27:58.302Z,33.15
2018-11-26T20:30:27.088Z,33.08
2018-11-26T20:32:56.775Z,34.20
2018-11-26T20:35:24.470Z,32.28
2018-11-26T20:37:52.639Z,35.92
2018-11-26T20:40:21.295Z,35.92
2018-11-26T20:42:53.038Z,31.85
2018-11-26T20:45:21.640Z,34.53
2018-11-26T20:47:50.157Z,37.28
2018-11-26T20:50:36.685Z,38.15
2018-11-26T20:53:06.261Z,30.60
2018-11-26T20:55:34.307Z,35.78
2018-11-26T20:58:02.600Z,38.33
2018-11-26T21:00:30.596Z,32.47
2018-11-26T21:03:13.336Z,32.38
2018-11-26T21:05:43.730Z,34.65
2018-11-26T21:08:12.163Z,37.13
2018-11-26T21:10:40.099Z,39.00
2018-11-26T21:13:08.816Z,39.23
2018-11-26T21:15:37.193Z,38.33
2018-11-26T21:18:10.517Z,37.17
2018-11-26T21:20:44.434Z,38.75
2018-11-26T21:23:14.220Z,33.20
2018-11-26T21:25:43.608Z,39.78
2018-11-26T21:28:13.647Z,34.50
2018-11-26T21:30:41.967Z,35.05
2018-11-26T21:33:12.019Z,36.40
2018-11-26T21:35:42.128Z,40.72
2018-11-26T21:38:12.425Z,39.28
2018-11-26T21:40:40.897Z,37.47
2018-11-26T21:43:11.218Z,37.15
2018-11-26T21:45:50.018Z,39.72
2018-11-26T21:48:18.395Z,36.22
2018-11-26T21:50:48.288Z,36.10
2018-11-26T21:53:16.729Z,36.38
2018-11-26T21:55:44.670Z,38.95
2018-11-26T21:58:14.733Z,41.42
2018-11-26T22:00:44.957Z,41.60
2018-11-26T22:03:16.240Z,40.97
2018-11-26T22:05:45.018Z,37.13
2018-11-26T22:08:15.767Z,42.33
2018-11-26T22:10:46.295Z,34.28
2018-11-26T22:13:18.368Z,39.85
2018-11-26T22:15:48.381Z,41.90
2018-11-26T22:18:18.373Z,37.67
2018-11-26T22:20:48.602Z,34.67
2018-11-26T22:23:19.359Z,39.58
2018-11-26T22:25:49.364Z,39.47
2018-11-26T22:28:19.339Z,37.55
2018-11-26T22:30:47.608Z,40.50
2018-11-26T22:33:17.523Z,36.00
2018-11-26T22:35:47.483Z,36.22
2018-11-26T22:38:16.360Z,40.78
2018-11-26T22:40:44.366Z,37.92
2018-11-26T22:43:12.408Z,39.38
2018-11-26T22:45:40.568Z,37.90
2018-11-26T22:48:09.366Z,39.60
2018-11-26T22:50:38.500Z,38.13
2018-11-26T22:53:08.830Z,35.85
2018-11-26T22:55:36.803Z,35.13
2018-11-26T22:58:04.792Z,42.25
2018-11-26T23:00:43.508Z,42.45
2018-11-26T23:03:12.695Z,39.65
2018-11-26T23:05:40.983Z,35.47
2018-11-26T23:08:10.547Z,37.95
2018-11-26T23:10:38.248Z,39.30
2018-11-26T23:13:06.591Z,39.45
2018-11-26T23:15:34.598Z,36.58
2018-11-26T23:18:03.184Z,38.25
2018-11-26T23:20:31.215Z,39.97
2018-11-26T23:23:01.020Z,38.67
2018-11-26T23:25:28.987Z,38.60
2018-11-26T23:27:58.248Z,38.90
2018-11-26T23:30:29.121Z,37.58
2018-11-26T23:33:08.097Z,37.38
2018-11-26T23:36:07.810Z,34.40
2018-11-26T23:38:36.484Z,41.03
2018-11-26T23:41:04.294Z,39.30
2018-11-26T23:43:32.283Z,37.80
2018-11-26T23:46:00.366Z,36.58
2018-11-26T23:48:28.399Z,37.88
2018-11-26T23:50:58.096Z,39.28
2018-11-26T23:53:26.185Z,33.25
2018-11-26T23:55:54.234Z,36.00
2018-11-26T23:58:23.882Z,36.60
